Lamasco, Kentucky
Current Conditions -  °F | °C
As of 4:55 PM on Saturday 20 Dec 2014 (Local Time) from K5M9 Reporting Station
Clear Clear  
Wind Chill: 31°   Ceiling: Unl
Heat Index: 35°   Visibility: 10mi
Dew Point: 27°   Wind: 5mph
Humidity: 74%   Direction: 70°ENE
Pressure: 30.25"   Gusts: NA
Location:  37.0504°N, 88.0159°W
Report Text: K5M9 202255Z AUTO 07004KT 10SM CLR 02/M03 A3025 RMK AO2 T00151026
Loading
Personal Weather Stations






























Interactive Weather Map New forecast layout! Learn more

10-Day Weather Forecast

Advertisements
Track Severe Weather on mobile